Time;durP1;ratioP1;P1;durP2;ratioP2;P2;SDS_P1;SDS_P2;PMS_P1;PMS_P2;Temp;Humidity;BMP_temperature;BMP_pressure;BME280_temperature;BME280_humidity;BME280_pressure;Samples;Min_cycle;Max_cycle;Signal;HPM_P1;HPM_P2
2023/07/17 00:01:12;;;;;;;4.68;3.05;;;20.80;57.20;;;22.41;44.29;97825.16;5030547;28;20603;-48
2023/07/17 00:03:39;;;;;;;3.50;2.63;;;20.90;57.10;;;22.46;44.08;97819.03;5031187;28;20404;-53
2023/07/17 00:06:07;;;;;;;7.93;3.47;;;20.80;57.00;;;22.46;44.02;97823.63;5031717;28;20045;-48
2023/07/17 00:08:35;;;;;;;6.13;2.97;;;20.90;57.50;;;22.41;44.34;97825.16;5013782;28;20389;-48
2023/07/17 00:11:03;;;;;;;7.90;3.40;;;20.80;57.80;;;22.44;44.01;97828.47;5031234;28;20041;-53
2023/07/17 00:13:31;;;;;;;4.82;2.83;;;20.80;57.70;;;22.47;44.45;97820.69;5031478;28;20045;-49
2023/07/17 00:15:58;;;;;;;5.07;3.17;;;20.80;57.60;;;22.50;44.18;97831.06;5031380;28;20045;-50
2023/07/17 00:18:26;;;;;;;6.57;3.75;;;20.80;57.50;;;22.52;44.21;97826.22;5031986;28;20050;-50
2023/07/17 00:20:53;;;;;;;6.18;3.22;;;20.90;57.40;;;22.57;44.18;97822.84;5031261;28;20042;-50
2023/07/17 00:23:21;;;;;;;5.57;2.88;;;21.00;57.30;;;22.55;44.10;97831.19;5031108;28;20497;-49
2023/07/17 00:25:49;;;;;;;6.85;3.38;;;20.90;57.50;;;22.53;44.35;97833.31;5031193;28;20033;-49
2023/07/17 00:28:16;;;;;;;3.35;2.15;;;20.90;57.90;;;22.54;44.28;97826.00;5031269;28;20046;-50
2023/07/17 00:30:45;;;;;;;4.38;3.65;;;20.90;57.80;;;22.57;44.13;97829.06;5035293;28;20073;-50
2023/07/17 00:33:13;;;;;;;3.20;2.55;;;21.00;57.80;;;22.57;44.54;97825.56;5036114;28;20049;-52
2023/07/17 00:35:40;;;;;;;7.72;2.88;;;21.00;57.80;;;22.56;44.47;97819.28;5036273;28;20041;-48
2023/07/17 00:38:08;;;;;;;3.80;2.80;;;21.00;58.10;;;22.54;44.50;97813.25;5038735;28;20050;-52
2023/07/17 00:40:39;;;;;;;4.15;2.67;;;20.90;58.30;;;22.57;44.45;97815.50;5036778;28;20057;-49
2023/07/17 00:43:11;;;;;;;6.50;2.72;;;20.90;58.40;;;22.61;44.40;97810.44;5036234;28;20069;-50
2023/07/17 00:45:43;;;;;;;3.78;2.58;;;21.00;58.40;;;22.58;44.71;97828.00;5036566;28;20042;-49
2023/07/17 00:48:13;;;;;;;10.35;3.40;;;21.00;58.40;;;22.59;44.79;97824.25;5036469;28;20068;-51
2023/07/17 00:50:41;;;;;;;3.83;3.03;;;21.00;58.30;;;22.57;44.70;97830.97;5036300;28;20046;-50
2023/07/17 00:53:09;;;;;;;10.80;2.88;;;20.90;58.70;;;22.57;44.94;97830.97;5036303;28;20046;-49
2023/07/17 00:55:38;;;;;;;4.10;2.72;;;20.90;58.90;;;22.59;44.80;97824.25;5036091;28;20053;-52
2023/07/17 00:58:07;;;;;;;4.43;2.55;;;20.90;59.00;;;22.57;44.88;97820.13;5016277;28;20076;-49
2023/07/17 01:00:34;;;;;;;15.18;3.33;;;20.80;59.10;;;22.56;44.89;97821.16;5035899;28;20528;-49
2023/07/17 01:03:04;;;;;;;4.65;3.00;;;20.90;58.80;;;22.55;44.84;97814.91;5037543;28;20041;-49
2023/07/17 01:05:31;;;;;;;5.13;2.78;;;20.90;58.50;;;22.60;44.56;97817.78;5035714;28;20058;-53
2023/07/17 01:08:00;;;;;;;4.57;2.80;;;21.00;58.40;;;22.60;44.79;97817.78;5037269;28;20523;-50
2023/07/17 01:10:28;;;;;;;4.88;2.45;;;21.00;58.40;;;22.62;44.70;97822.94;5036772;28;20053;-49
2023/07/17 01:12:56;;;;;;;3.80;2.38;;;21.00;58.30;;;22.58;44.81;97822.56;5028378;28;20056;-53
2023/07/17 01:15:25;;;;;;;6.65;2.97;;;21.00;58.40;;;22.58;44.73;97829.91;5036237;28;20057;-52
2023/07/17 01:17:54;;;;;;;3.55;2.63;;;21.00;58.20;;;22.58;44.65;97819.88;5035829;28;20041;-50
2023/07/17 01:20:21;;;;;;;5.95;2.58;;;21.00;58.00;;;22.61;44.56;97830.25;5038331;28;20045;-54
2023/07/17 01:23:03;;;;;;;4.03;2.70;;;21.00;58.10;;;22.60;44.57;97834.06;5018830;28;20505;-54
2023/07/17 01:25:31;;;;;;;12.50;3.00;;;21.00;58.00;;;22.63;44.57;97837.34;5035925;28;20046;-51
2023/07/17 01:27:59;;;;;;;3.08;2.55;;;21.00;57.90;;;22.61;44.60;97835.69;5036245;28;20045;-53
2023/07/17 01:30:26;;;;;;;3.95;2.72;;;21.00;58.00;;;22.66;44.50;97839.59;5037284;28;20045;-52
2023/07/17 01:32:56;;;;;;;6.00;2.70;;;21.00;58.10;;;22.63;44.57;97840.06;5036901;28;20037;-51
2023/07/17 01:35:23;;;;;;;3.92;2.55;;;21.00;58.50;;;22.64;44.54;97842.53;5036167;28;20057;-50
2023/07/17 01:37:51;;;;;;;4.07;2.40;;;21.00;58.30;;;22.63;44.57;97843.59;5037781;28;20050;-53
2023/07/17 01:40:18;;;;;;;5.50;3.20;;;21.00;58.30;;;22.63;44.76;97840.06;5036584;28;20049;-50
2023/07/17 01:42:46;;;;;;;3.38;2.70;;;21.00;58.50;;;22.63;44.72;97840.06;5032969;28;20046;-49
2023/07/17 01:45:15;;;;;;;3.78;2.75;;;20.90;58.60;;;22.57;44.83;97842.66;5032688;28;20049;-50
2023/07/17 01:47:42;;;;;;;4.22;2.72;;;20.80;59.10;;;22.52;44.93;97838.97;5032513;28;20512;-50
2023/07/17 01:50:10;;;;;;;4.30;2.67;;;20.80;59.40;;;22.52;45.13;97839.78;5032715;28;20064;-52
2023/07/17 01:52:38;;;;;;;3.30;2.85;;;20.80;59.40;;;22.50;45.30;97841.09;5032430;28;20080;-51
2023/07/17 01:55:06;;;;;;;5.85;2.53;;;20.70;59.30;;;22.52;44.89;97834.38;5033026;28;20053;-51
2023/07/17 01:57:33;;;;;;;5.43;2.90;;;20.70;59.20;;;22.55;44.77;97841.22;5032521;28;20049;-51
2023/07/17 02:00:02;;;;;;;2.97;2.60;;;20.80;58.90;;;22.53;44.95;97838.75;5033092;28;20041;-51
2023/07/17 02:02:39;;;;;;;4.63;2.55;;;20.80;58.70;;;22.51;44.99;97843.59;5033643;28;20058;-52
2023/07/17 02:05:08;;;;;;;4.85;2.95;;;20.80;58.90;;;22.50;44.81;97846.53;5032137;28;20465;-52
2023/07/17 02:07:36;;;;;;;5.68;2.80;;;20.80;58.80;;;22.49;45.00;97844.84;5032313;28;20053;-52
2023/07/17 02:10:04;;;;;;;5.60;3.13;;;20.80;58.90;;;22.46;45.15;97837.19;5033723;28;20046;-51
2023/07/17 02:12:31;;;;;;;20.00;3.90;;;20.70;59.10;;;22.41;44.98;97844.16;5031705;28;20046;-52
2023/07/17 02:15:00;;;;;;;5.00;2.58;;;20.70;59.20;;;22.35;45.16;97841.53;5025489;28;20063;-50
2023/07/17 02:17:28;;;;;;;3.22;2.70;;;20.50;59.60;;;22.31;44.98;97845.75;5028052;28;20046;-52
2023/07/17 02:19:56;;;;;;;5.95;3.22;;;20.50;59.80;;;22.27;45.38;97841.88;5015828;28;20056;-53
2023/07/17 02:22:23;;;;;;;3.05;2.60;;;20.40;59.90;;;22.21;45.31;97844.41;5032514;28;20416;-51
2023/07/17 02:24:51;;;;;;;5.13;2.70;;;20.40;60.20;;;22.15;45.46;97842.63;5032349;28;20060;-49
2023/07/17 02:27:18;;;;;;;4.30;2.65;;;20.30;60.40;;;22.11;45.65;97851.47;5032009;28;20531;-50
2023/07/17 02:29:47;;;;;;;4.25;3.30;;;20.30;60.30;;;22.12;45.53;97847.66;5033242;28;20440;-49
2023/07/17 02:32:15;;;;;;;4.88;2.95;;;20.30;60.00;;;22.06;45.60;97854.03;5031659;28;20052;-53
2023/07/17 02:34:42;;;;;;;4.97;3.42;;;20.30;60.40;;;22.03;45.28;97852.59;5033141;28;20060;-54
2023/07/17 02:37:11;;;;;;;5.18;4.10;;;20.30;60.30;;;22.00;45.42;97856.63;5031865;28;20057;-52
2023/07/17 02:39:39;;;;;;;4.07;2.55;;;20.20;60.30;;;21.98;45.48;97860.59;5031701;28;20045;-53
2023/07/17 02:42:07;;;;;;;5.55;3.28;;;20.20;60.40;;;21.98;45.56;97860.59;5032757;28;20057;-51
2023/07/17 02:44:36;;;;;;;5.07;2.72;;;20.20;60.40;;;21.97;45.48;97858.94;5033159;28;20048;-53
2023/07/17 02:47:04;;;;;;;5.30;3.00;;;20.30;60.40;;;21.97;45.96;97861.66;5023908;28;20045;-50
2023/07/17 02:49:31;;;;;;;4.53;2.50;;;20.30;60.40;;;21.97;45.90;97865.19;5031346;28;20528;-50
2023/07/17 02:51:59;;;;;;;3.28;2.60;;;20.30;60.00;;;21.95;45.81;97872.72;5031231;28;20064;-53
2023/07/17 02:54:27;;;;;;;5.60;3.20;;;20.30;60.10;;;21.92;45.57;97869.63;5031260;28;20057;-52
2023/07/17 02:56:54;;;;;;;6.47;2.88;;;20.20;60.00;;;21.88;45.27;97871.16;5032585;28;20045;-52
2023/07/17 02:59:22;;;;;;;4.22;2.90;;;20.20;59.30;;;21.88;45.41;97871.97;5031001;28;20057;-51
2023/07/17 03:01:50;;;;;;;4.50;2.72;;;20.20;59.30;;;21.91;45.32;97881.56;5031059;28;20041;-52
2023/07/17 03:04:18;;;;;;;7.13;3.22;;;20.30;59.30;;;21.91;45.41;97885.09;5030672;28;20046;-53
2023/07/17 03:06:45;;;;;;;4.95;2.88;;;20.30;58.90;;;21.92;45.17;97886.72;5032299;28;20052;-49
2023/07/17 03:09:13;;;;;;;5.25;3.25;;;20.30;58.80;;;21.95;45.06;97891.69;5031600;28;20057;-50
2023/07/17 03:11:40;;;;;;;5.60;2.67;;;20.40;58.70;;;21.96;45.37;97887.91;5032161;28;20057;-49
2023/07/17 03:14:08;;;;;;;4.07;2.50;;;20.40;58.90;;;21.99;45.17;97884.75;5031507;28;20057;-53
2023/07/17 03:16:36;;;;;;;5.07;2.63;;;20.40;58.60;;;22.00;45.27;97886.44;5014506;28;20061;-48
2023/07/17 03:19:04;;;;;;;5.88;2.92;;;20.40;58.60;;;22.01;44.78;97889.97;5032155;28;20045;-51
2023/07/17 03:21:31;;;;;;;4.78;2.65;;;20.40;58.40;;;22.01;45.13;97887.25;5014382;28;20052;-51
2023/07/17 03:24:04;;;;;;;4.22;3.20;;;20.40;58.30;;;22.02;44.86;97886.19;5030906;28;20064;-49
2023/07/17 03:26:32;;;;;;;6.22;2.78;;;20.40;58.10;;;22.02;44.86;97894.31;5031168;28;20053;-52
2023/07/17 03:29:00;;;;;;;7.15;2.90;;;20.40;57.90;;;21.99;44.44;97890.19;5032240;28;20052;-52
2023/07/17 03:31:27;;;;;;;4.57;3.95;;;20.40;57.90;;;21.97;44.89;97886.06;5030645;28;20061;-53
2023/07/17 03:33:56;;;;;;;8.30;3.15;;;20.30;58.00;;;21.96;44.63;97889.81;5031050;28;20049;-53
2023/07/17 03:36:25;;;;;;;6.13;2.92;;;20.30;57.80;;;21.93;44.71;97885.69;5030811;28;20046;-54
2023/07/17 03:38:53;;;;;;;6.75;2.90;;;20.30;57.70;;;21.92;44.60;97885.91;5031785;28;20068;-53
2023/07/17 03:41:21;;;;;;;5.57;3.17;;;20.30;57.70;;;21.92;44.23;97886.72;5030362;28;20050;-52
2023/07/17 03:43:49;;;;;;;5.05;2.88;;;20.30;57.60;;;21.93;44.37;97884.88;5030866;28;20421;-52
2023/07/17 03:46:19;;;;;;;6.20;2.85;;;20.30;57.50;;;21.93;44.29;97899.22;5031282;28;20046;-54
2023/07/17 03:48:46;;;;;;;6.45;2.90;;;20.30;57.70;;;21.94;44.16;97897.34;5030741;28;20053;-53
2023/07/17 03:51:14;;;;;;;5.03;3.00;;;20.30;57.50;;;21.92;44.52;97897.56;5030216;28;20049;-50
2023/07/17 03:53:42;;;;;;;6.90;3.38;;;20.30;57.50;;;21.90;44.43;97896.97;5030475;28;20046;-50
2023/07/17 03:56:10;;;;;;;6.25;3.30;;;20.20;57.60;;;21.89;44.35;97894.47;5022611;28;20045;-54
2023/07/17 03:58:38;;;;;;;5.30;3.30;;;20.20;57.50;;;21.83;44.42;97891.63;5031046;28;20523;-52
2023/07/17 04:01:05;;;;;;;4.70;3.42;;;20.20;57.70;;;21.81;44.82;97898.34;5028728;28;20057;-53
2023/07/17 04:03:41;;;;;;;3.63;2.78;;;20.10;58.00;;;21.79;44.93;97895.88;5030331;28;20045;-51
2023/07/17 04:06:08;;;;;;;3.70;2.55;;;20.10;58.10;;;21.78;44.66;97898.78;5029302;28;20053;-54
2023/07/17 04:08:38;;;;;;;4.45;2.58;;;20.10;58.30;;;21.73;44.98;97896.78;5030417;28;20044;-49
2023/07/17 04:11:05;;;;;;;6.50;2.80;;;20.00;58.10;;;21.69;45.24;97892.84;5029820;28;20057;-49
2023/07/17 04:13:34;;;;;;;6.13;3.33;;;20.00;58.70;;;21.63;45.01;97896.47;5030171;28;20053;-50
2023/07/17 04:16:03;;;;;;;6.97;4.07;;;19.90;59.00;;;21.58;45.31;97902.56;5029949;28;20045;-52
2023/07/17 04:18:30;;;;;;;6.03;3.42;;;19.90;59.50;;;21.52;45.58;97903.47;5029877;28;20048;-50
2023/07/17 04:21:00;;;;;;;3.97;3.15;;;19.70;59.60;;;21.51;45.57;97909.94;5029780;28;20519;-51
2023/07/17 04:23:27;;;;;;;5.97;2.90;;;19.80;59.80;;;21.47;45.62;97902.50;5030202;28;20045;-51
2023/07/17 04:25:59;;;;;;;5.45;2.90;;;19.70;60.30;;;21.47;45.92;97902.50;5030143;28;20501;-53
2023/07/17 04:28:27;;;;;;;4.38;2.90;;;19.70;60.40;;;21.48;45.81;97904.97;5029982;28;20053;-51
2023/07/17 04:30:55;;;;;;;7.68;2.97;;;19.70;60.30;;;21.45;45.95;97913.53;5029731;28;20050;-51
2023/07/17 04:33:23;;;;;;;5.60;3.05;;;19.70;60.50;;;21.42;46.08;97909.38;5030786;28;20045;-52
2023/07/17 04:35:50;;;;;;;6.40;3.45;;;19.70;60.30;;;21.45;46.02;97913.53;5031099;28;20414;-52
2023/07/17 04:38:19;;;;;;;6.93;3.28;;;19.70;60.30;;;21.44;45.83;97914.59;5030158;28;20049;-52
2023/07/17 04:40:47;;;;;;;5.15;2.75;;;19.80;61.20;;;21.47;45.81;97913.31;5031030;28;20412;-48
2023/07/17 04:43:15;;;;;;;6.18;2.80;;;19.80;60.20;;;21.46;45.85;97925.19;5029635;28;20042;-48
2023/07/17 04:45:43;;;;;;;3.88;2.88;;;19.80;60.10;;;21.43;46.08;97923.75;5030678;28;20038;-52
2023/07/17 04:48:17;;;;;;;3.33;2.65;;;19.80;60.30;;;21.40;46.27;97924.19;5029969;28;20045;-53
2023/07/17 04:50:45;;;;;;;6.20;2.78;;;19.80;60.70;;;21.41;46.11;97921.25;5013230;28;20269;-50
2023/07/17 04:53:13;;;;;;;4.03;2.90;;;19.80;60.60;;;21.41;46.41;97928.56;5029558;28;20046;-51
2023/07/17 04:55:41;;;;;;;5.65;3.08;;;19.80;60.70;;;21.43;46.24;97926.44;5031101;28;20041;-53
2023/07/17 04:58:08;;;;;;;7.38;3.35;;;19.80;60.30;;;21.44;46.22;97922.69;5029837;28;20061;-53
2023/07/17 05:00:39;;;;;;;3.97;2.97;;;19.80;60.30;;;21.41;46.36;97920.44;5030250;28;20056;-54
2023/07/17 05:03:07;;;;;;;6.53;3.40;;;19.80;60.60;;;21.40;46.59;97927.72;5030029;28;20416;-53
2023/07/17 05:05:35;;;;;;;6.38;2.78;;;19.80;60.50;;;21.43;46.24;97930.00;5028865;28;20056;-53
2023/07/17 05:08:04;;;;;;;6.38;3.00;;;19.90;60.40;;;21.46;46.22;97925.19;5029129;28;20497;-54
2023/07/17 05:10:32;;;;;;;5.40;3.00;;;19.90;60.10;;;21.42;46.47;97930.19;5030134;28;20084;-54
2023/07/17 05:13:00;;;;;;;4.47;3.05;;;19.90;60.30;;;21.38;46.52;97929.84;5013735;28;20060;-52
2023/07/17 05:15:27;;;;;;;6.70;2.83;;;19.80;60.70;;;21.41;46.91;97937.50;5029894;28;20061;-52
2023/07/17 05:17:55;;;;;;;5.80;3.40;;;19.90;61.10;;;21.49;47.16;97932.88;5032852;28;20402;-51
2023/07/17 05:20:25;;;;;;;3.42;3.00;;;20.00;61.10;;;21.49;47.09;97933.69;5033353;28;20045;-48
2023/07/17 05:22:52;;;;;;;8.90;3.40;;;20.00;61.40;;;21.49;47.40;97935.59;5034731;28;20041;-49
2023/07/17 05:25:21;;;;;;;5.43;2.80;;;20.00;61.50;;;21.54;46.91;97935.72;5033591;28;20041;-53
2023/07/17 05:27:48;;;;;;;7.05;4.25;;;20.00;61.30;;;21.63;46.95;97937.09;5032568;28;20480;-48
2023/07/17 05:30:16;;;;;;;5.25;3.00;;;20.20;61.00;;;21.70;46.76;97943.28;5033170;28;20429;-50
2023/07/17 05:32:44;;;;;;;5.43;3.17;;;20.30;60.60;;;21.79;46.70;97944.63;5032908;28;20501;-45
2023/07/17 05:35:12;;;;;;;6.82;3.40;;;20.40;60.10;;;21.85;46.32;97953.75;5032937;28;20053;-51
2023/07/17 05:37:39;;;;;;;4.72;3.05;;;20.50;59.60;;;21.94;46.54;97954.25;5032599;28;20072;-47
2023/07/17 05:40:09;;;;;;;5.47;2.88;;;20.60;59.30;;;21.94;46.47;97952.38;5034280;28;20064;-47
2023/07/17 05:42:37;;;;;;;4.45;2.58;;;20.60;59.30;;;22.02;46.40;97953.94;5033168;28;20042;-48
2023/07/17 05:45:05;;;;;;;7.82;3.83;;;20.70;59.30;;;22.13;46.29;97955.91;5032902;28;20056;-50
2023/07/17 05:47:33;;;;;;;5.05;2.95;;;20.80;59.20;;;22.20;46.46;97964.78;5034441;28;20041;-46
2023/07/17 05:50:01;;;;;;;5.05;2.85;;;20.90;59.30;;;22.21;46.12;97961.00;5034076;28;20041;-50
2023/07/17 05:52:28;;;;;;;3.67;2.55;;;20.80;59.30;;;22.20;46.45;97962.06;5032350;28;20041;-45
2023/07/17 05:54:56;;;;;;;7.57;3.15;;;20.80;59.70;;;22.22;46.39;97965.38;5033889;28;20046;-45
2023/07/17 05:57:26;;;;;;;7.88;2.80;;;20.70;59.60;;;22.22;46.19;97969.97;5033807;28;20037;-46
2023/07/17 05:59:54;;;;;;;4.40;3.05;;;20.70;59.60;;;22.16;46.38;97962.75;5033993;28;20045;-45
2023/07/17 06:02:22;;;;;;;8.02;2.80;;;20.60;59.80;;;22.14;45.97;97965.69;5024878;28;20041;-47
2023/07/17 06:04:50;;;;;;;4.35;3.03;;;20.60;59.80;;;22.11;46.46;97976.97;5033186;28;20037;-52
2023/07/17 06:07:17;;;;;;;8.68;3.92;;;20.60;59.90;;;22.07;46.42;97978.50;5033238;28;20044;-48
2023/07/17 06:09:45;;;;;;;10.20;3.60;;;20.50;60.30;;;22.09;46.61;97976.38;5033617;28;20052;-46
2023/07/17 06:12:13;;;;;;;4.57;2.83;;;20.60;60.30;;;22.16;46.40;97984.47;5033228;28;20053;-52
2023/07/17 06:14:40;;;;;;;6.47;3.13;;;20.60;60.30;;;22.18;46.67;97983.16;5034170;28;20045;-48
2023/07/17 06:17:08;;;;;;;3.78;2.70;;;20.60;60.40;;;22.20;46.74;97981.06;5034071;28;20053;-49
2023/07/17 06:19:35;;;;;;;5.45;3.97;;;20.70;60.20;;;22.25;46.74;97985.00;5033352;28;20045;-50
2023/07/17 06:22:03;;;;;;;4.95;3.22;;;20.70;60.10;;;22.24;46.63;97981.44;5032779;28;20109;-51
2023/07/17 06:24:31;;;;;;;4.90;3.85;;;20.80;59.80;;;22.27;46.37;97980.16;5033398;28;20053;-50
2023/07/17 06:26:59;;;;;;;4.47;3.08;;;20.80;59.70;;;22.29;46.68;97983.47;5033221;28;20044;-49
2023/07/17 06:29:27;;;;;;;4.75;3.13;;;20.90;59.70;;;22.28;46.45;97987.25;5032453;28;20045;-51
2023/07/17 06:31:55;;;;;;;4.38;3.97;;;20.90;59.80;;;22.33;46.44;97993.66;5032483;28;20072;-51
2023/07/17 06:34:22;;;;;;;7.47;3.55;;;21.00;59.70;;;22.36;46.42;97993.19;5031581;28;20436;-51
2023/07/17 06:36:51;;;;;;;6.82;3.33;;;21.00;59.60;;;22.44;46.57;97993.94;5032680;28;20397;-50
2023/07/17 06:39:19;;;;;;;7.40;2.80;;;21.10;59.30;;;22.48;46.53;97995.94;5032944;28;20046;-50
2023/07/17 06:41:47;;;;;;;7.63;3.00;;;21.20;59.20;;;22.54;46.43;97996.91;5031727;28;20045;-48
2023/07/17 06:44:16;;;;;;;6.30;3.95;;;21.20;59.00;;;22.59;45.97;97992.47;5015487;28;20056;-50
2023/07/17 06:46:43;;;;;;;6.95;4.07;;;21.30;58.90;;;22.60;45.46;97998.69;5032052;28;20515;-46
2023/07/17 06:49:11;;;;;;;7.57;3.38;;;21.40;57.00;;;22.66;45.42;97988.81;5032585;28;20049;-47
2023/07/17 06:51:39;;;;;;;6.65;3.55;;;21.40;57.40;;;22.69;44.60;97986.47;5032810;28;20053;-48
2023/07/17 06:54:06;;;;;;;5.68;3.40;;;21.40;56.00;;;22.74;44.36;97983.91;5031251;28;20694;-48
2023/07/17 06:56:34;;;;;;;5.32;3.60;;;21.50;55.70;;;22.80;44.53;97990.28;5033296;28;20049;-47
2023/07/17 06:59:01;;;;;;;7.35;4.15;;;21.60;55.80;;;22.81;43.80;97983.78;5032721;28;20037;-46
2023/07/17 07:01:29;;;;;;;7.50;3.55;;;21.60;54.80;;;22.85;43.90;97986.88;5028405;28;20033;-46
2023/07/17 07:03:57;;;;;;;8.88;4.25;;;21.70;53.80;;;22.89;43.41;97985.34;5032469;28;20041;-49
2023/07/17 07:06:24;;;;;;;5.07;3.30;;;21.70;53.60;;;22.94;43.30;97982.78;5032876;28;20044;-51
2023/07/17 07:08:52;;;;;;;6.28;4.15;;;21.80;53.70;;;22.97;43.26;97995.88;5032510;28;20052;-47
2023/07/17 07:11:19;;;;;;;9.27;3.55;;;21.80;53.50;;;23.00;43.20;97995.41;5032318;28;20037;-48
2023/07/17 07:13:47;;;;;;;7.63;4.72;;;21.80;53.80;;;23.03;42.65;97996.84;5032463;28;20045;-47
2023/07/17 07:16:15;;;;;;;6.15;4.38;;;21.80;53.00;;;23.02;42.26;97995.19;5032345;28;20041;-47
2023/07/17 07:18:43;;;;;;;5.50;4.38;;;21.90;51.50;;;23.11;42.47;97997.38;5032441;28;20041;-45
2023/07/17 07:21:11;;;;;;;5.35;3.83;;;22.00;53.10;;;23.14;41.80;97988.72;5031780;28;20068;-46
2023/07/17 07:23:39;;;;;;;6.57;4.25;;;22.00;51.50;;;23.21;41.73;97983.22;5032562;28;20060;-48
2023/07/17 07:26:06;;;;;;;5.18;4.07;;;22.10;51.50;;;23.26;41.20;97988.75;5032576;28;20053;-47
2023/07/17 07:28:34;;;;;;;6.70;4.47;;;22.10;48.40;;;23.26;40.22;97987.94;5031915;28;20038;-47
2023/07/17 07:31:02;;;;;;;6.25;5.18;;;22.20;47.70;;;23.27;40.02;97979.53;5031531;28;20045;-48
2023/07/17 07:33:30;;;;;;;9.20;4.38;;;22.30;49.10;;;23.30;39.59;97992.66;5032288;28;20412;-47
2023/07/17 07:35:57;;;;;;;12.40;5.30;;;22.40;46.50;;;23.31;39.59;97996.22;5031797;28;20041;-52
2023/07/17 07:38:25;;;;;;;8.32;4.57;;;22.40;47.50;;;23.38;39.45;97995.03;5030838;28;20049;-47
2023/07/17 07:40:52;;;;;;;7.90;4.38;;;22.40;46.50;;;23.42;39.67;97987.25;5030958;28;20053;-48
2023/07/17 07:43:20;;;;;;;8.57;4.75;;;22.50;47.50;;;23.47;38.77;97995.50;5031594;28;20045;-48
2023/07/17 07:45:48;;;;;;;6.78;4.22;;;22.50;46.40;;;23.51;38.21;97988.53;5032407;28;20389;-62
2023/07/17 07:48:15;;;;;;;7.38;3.78;;;22.50;45.40;;;23.55;38.36;97992.44;5031665;28;20042;-62
2023/07/17 07:50:43;;;;;;;8.75;4.55;;;22.50;44.80;;;23.63;38.66;97988.50;5031855;28;20393;-62
2023/07/17 07:53:11;;;;;;;7.80;3.72;;;22.60;45.90;;;23.65;37.44;97997.28;5031467;28;20049;-64
2023/07/17 07:55:38;;;;;;;7.60;5.35;;;22.70;43.40;;;23.72;37.87;98003.41;5031860;28;20049;-63
2023/07/17 07:58:06;;;;;;;7.45;4.20;;;22.70;45.30;;;23.75;37.55;97992.06;5031759;28;20053;-63
2023/07/17 08:00:33;;;;;;;6.65;3.80;;;22.70;44.90;;;23.83;37.65;98000.97;5031750;28;20045;-61
2023/07/17 08:03:01;;;;;;;6.03;4.55;;;22.70;44.10;;;23.89;37.29;98002.72;5031475;28;20368;-64
2023/07/17 08:05:29;;;;;;;6.00;3.85;;;22.80;44.10;;;23.92;37.13;97994.94;5030867;28;20500;-63
2023/07/17 08:07:56;;;;;;;5.50;4.10;;;22.80;43.50;;;23.98;37.75;97993.97;5031253;28;20033;-63
2023/07/17 08:10:24;;;;;;;7.22;4.90;;;22.80;45.00;;;24.07;37.07;97996.31;5030615;28;20049;-64
2023/07/17 08:12:51;;;;;;;7.97;5.72;;;22.90;44.00;;;24.10;36.68;97998.56;5031494;28;20554;-63
2023/07/17 08:15:19;;;;;;;6.53;4.60;;;23.00;43.30;;;24.13;36.05;97998.06;5031619;28;20416;-63
2023/07/17 08:17:48;;;;;;;7.07;4.47;;;23.10;42.20;;;23.90;35.48;98007.09;5023290;28;20045;-62
2023/07/17 08:20:15;;;;;;;6.05;4.18;;;23.20;40.60;;;23.86;35.19;98012.16;5031307;28;20053;-63
2023/07/17 08:22:43;;;;;;;5.70;3.90;;;23.20;39.40;;;23.98;35.46;98006.72;5031134;28;20044;-63
2023/07/17 08:25:11;;;;;;;6.00;4.43;;;23.20;40.50;;;24.15;35.95;98007.63;5031520;28;20060;-63
2023/07/17 08:27:38;;;;;;;8.93;4.30;;;23.30;42.00;;;24.28;35.25;98017.41;5023492;28;20394;-63
2023/07/17 08:30:07;;;;;;;5.93;3.75;;;23.30;40.70;;;24.17;34.53;98010.13;5031167;28;20041;-63
2023/07/17 08:32:34;;;;;;;5.72;4.72;;;23.30;38.40;;;24.25;34.69;98011.63;5031006;28;20516;-63
2023/07/17 08:35:03;;;;;;;4.53;4.13;;;23.30;39.80;;;24.28;35.06;98011.97;5030129;28;20520;-61
2023/07/17 08:37:31;;;;;;;6.80;4.25;;;23.40;40.80;;;24.38;33.80;98014.91;5029882;28;20519;-62
2023/07/17 08:39:58;;;;;;;7.20;4.80;;;23.50;38.00;;;24.48;34.33;98000.66;5031289;28;20052;-63
2023/07/17 08:42:26;;;;;;;7.05;4.22;;;23.50;39.80;;;24.58;34.11;98008.22;5030867;28;20041;-50
2023/07/17 08:44:56;;;;;;;5.50;4.13;;;23.60;39.30;;;24.69;34.48;98003.81;5031315;28;20040;-48
2023/07/17 08:47:25;;;;;;;5.65;4.15;;;23.70;39.30;;;24.66;34.45;98024.19;5029591;28;20053;-48
2023/07/17 08:49:55;;;;;;;9.55;4.85;;;23.80;39.70;;;24.74;33.28;98009.38;5030071;28;20509;-49
2023/07/17 08:52:22;;;;;;;7.10;4.72;;;23.80;37.70;;;24.66;33.92;98013.31;5032583;28;20041;-46
2023/07/17 08:54:50;;;;;;;6.20;4.95;;;23.80;39.20;;;24.75;33.78;98014.56;5035307;28;20049;-47
2023/07/17 08:57:18;;;;;;;6.25;4.20;;;23.80;38.70;;;24.69;34.11;98012.00;5035028;28;20060;-49
2023/07/17 08:59:47;;;;;;;9.57;4.25;;;23.70;39.60;;;24.64;33.52;98009.16;5033771;28;20048;-48
2023/07/17 09:02:14;;;;;;;7.38;4.90;;;23.70;38.50;;;24.62;33.69;98011.31;5017387;28;20493;-50
2023/07/17 09:04:42;;;;;;;6.47;3.90;;;23.70;38.80;;;24.71;33.55;98013.38;5033927;28;20038;-51
2023/07/17 09:07:10;;;;;;;6.40;4.40;;;23.80;38.40;;;24.71;33.48;98024.28;5034909;28;20049;-50
2023/07/17 09:09:37;;;;;;;9.57;5.25;;;23.80;38.40;;;24.65;33.10;98013.56;5034711;28;20056;-50
2023/07/17 09:12:10;;;;;;;6.85;4.28;;;23.80;37.80;;;24.77;33.63;98011.59;5034424;28;20422;-48
2023/07/17 09:14:38;;;;;;;6.07;4.78;;;23.80;38.60;;;24.84;33.44;98008.72;5049945;28;20064;-48
2023/07/17 09:17:10;;;;;;;7.95;4.50;;;23.90;38.50;;;24.95;33.77;98011.41;5033550;28;20045;-48
2023/07/17 09:19:38;;;;;;;5.20;4.13;;;24.00;39.20;;;25.00;33.97;98021.53;5034557;28;20045;-47
2023/07/17 09:22:07;;;;;;;6.07;4.80;;;24.20;39.20;;;25.20;33.70;98018.34;5035119;28;20045;-48
2023/07/17 09:24:39;;;;;;;7.30;4.82;;;24.30;39.40;;;25.30;32.82;98012.25;5034580;28;20045;-62
2023/07/17 09:27:07;;;;;;;9.52;5.03;;;24.40;37.80;;;25.46;32.83;98010.63;5033230;28;20505;-62
2023/07/17 09:29:41;;;;;;;6.15;5.07;;;24.50;37.90;;;25.48;33.10;98014.75;5034153;28;20052;-62
2023/07/17 09:32:18;;;;;;;5.88;4.80;;;24.60;37.90;;;25.39;32.77;98013.50;5034283;28;20053;-62
2023/07/17 09:34:51;;;;;;;9.20;5.07;;;24.60;37.50;;;25.41;33.20;98010.53;5026463;28;20045;-62
2023/07/17 09:37:19;;;;;;;8.18;5.40;;;24.50;37.90;;;25.55;33.27;98011.84;5034328;28;20057;-62
2023/07/17 09:39:51;;;;;;;6.18;4.50;;;24.60;38.40;;;25.55;32.81;98011.84;5026067;28;20049;-62
2023/07/17 09:42:23;;;;;;;6.25;4.88;;;24.70;38.10;;;25.34;33.16;98019.72;5033627;28;20046;-62
2023/07/17 09:44:52;;;;;;;6.68;4.30;;;24.50;38.50;;;25.46;33.88;98007.91;5026771;28;20041;-62
2023/07/17 09:47:20;;;;;;;8.05;4.97;;;24.50;39.00;;;25.62;34.18;98011.69;5034187;28;20100;-62
2023/07/17 09:49:50;;;;;;;7.75;5.65;;;24.70;39.80;;;25.70;33.88;98019.44;5032864;28;20393;-62
2023/07/17 09:52:18;;;;;;;7.28;5.00;;;24.80;39.30;;;25.83;34.02;98010.09;5032487;28;20049;-62
2023/07/17 09:54:49;;;;;;;5.93;4.53;;;24.90;39.90;;;25.89;34.35;98018.06;5033829;28;20421;-63
2023/07/17 09:57:36;;;;;;;9.10;5.53;;;24.90;39.90;;;25.81;34.13;97999.41;5016387;28;20064;-62
2023/07/17 10:00:13;;;;;;;8.20;4.95;;;24.90;39.60;;;25.75;33.95;98014.06;5027598;28;20060;-63
2023/07/17 10:03:06;;;;;;;8.48;4.95;;;24.80;39.20;;;25.72;34.22;98009.09;5028519;28;20049;-64
2023/07/17 10:05:36;;;;;;;7.95;5.00;;;24.80;39.80;;;25.69;34.72;98007.72;5032739;28;20046;-62
2023/07/17 10:08:08;;;;;;;8.63;4.55;;;24.80;40.30;;;25.95;34.44;98010.81;5033589;28;20049;-62
2023/07/17 10:10:38;;;;;;;6.82;4.68;;;25.10;40.20;;;26.02;34.00;98006.03;5033943;28;20050;-62
2023/07/17 10:13:07;;;;;;;9.25;5.53;;;25.20;39.40;;;26.02;33.85;98029.75;5033080;28;20516;-62
2023/07/17 10:15:36;;;;;;;7.05;4.78;;;25.20;39.30;;;25.95;34.25;98010.81;5032093;28;20300;-62
2023/07/17 10:18:10;;;;;;;6.43;4.47;;;25.10;39.40;;;26.01;33.57;98006.25;5032189;28;20059;-62
2023/07/17 10:20:38;;;;;;;7.30;4.82;;;25.10;38.80;;;26.07;33.25;98006.06;5033615;28;20397;-61
2023/07/17 10:23:24;;;;;;;7.63;4.63;;;25.10;38.40;;;26.13;33.74;98002.34;5032884;28;20064;-62
2023/07/17 10:26:05;;;;;;;5.68;4.85;;;25.20;39.60;;;26.18;33.85;98000.75;5033188;28;20060;-62